Time;durP1;ratioP1;P1;durP2;ratioP2;P2;SDS_P1;SDS_P2;PMS_P1;PMS_P2;Temp;Humidity;BMP_temperature;BMP_pressure;BME280_temperature;BME280_humidity;BME280_pressure;Samples;Min_cycle;Max_cycle;Signal;HPM_P1;HPM_P2
2022/04/05 00:02:16;;;;;;;4.13;3.20;;;7.60;99.90;;;;;;7392941;19;20165;-82
2022/04/05 00:04:43;;;;;;;4.97;3.50;;;7.70;99.90;;;;;;7393100;19;20144;-82
2022/04/05 00:07:09;;;;;;;8.50;3.37;;;7.80;99.90;;;;;;7397976;19;20142;-81
2022/04/05 00:09:35;;;;;;;4.53;3.20;;;7.80;99.90;;;;;;7401607;19;20138;-81
2022/04/05 00:12:01;;;;;;;3.50;2.90;;;7.60;99.90;;;;;;7395078;19;20161;-82
2022/04/05 00:14:27;;;;;;;4.83;3.13;;;7.50;99.90;;;;;;7396618;19;20901;-83
2022/04/05 00:16:53;;;;;;;4.80;3.63;;;7.40;99.90;;;;;;7393600;19;20131;-82
2022/04/05 00:19:19;;;;;;;4.50;3.10;;;7.40;99.90;;;;;;7394639;19;20137;-81
2022/04/05 00:21:45;;;;;;;3.60;2.97;;;7.60;99.90;;;;;;7395770;19;20151;-81
2022/04/05 00:24:11;;;;;;;5.60;3.63;;;7.60;99.90;;;;;;7397461;19;20156;-81
2022/04/05 00:26:37;;;;;;;4.80;3.30;;;7.80;99.90;;;;;;7394416;19;20127;-80
2022/04/05 00:29:03;;;;;;;7.53;3.50;;;8.10;99.90;;;;;;7399591;19;20151;-82
2022/04/05 00:31:29;;;;;;;5.73;3.30;;;8.00;99.90;;;;;;7397624;19;20140;-81
2022/04/05 00:33:54;;;;;;;6.83;3.70;;;8.00;99.90;;;;;;7392570;19;20130;-80
2022/04/05 00:36:20;;;;;;;5.30;3.63;;;8.00;99.90;;;;;;7395472;19;20150;-81
2022/04/05 00:38:46;;;;;;;4.77;3.40;;;8.10;99.90;;;;;;7390921;19;20146;-81
2022/04/05 00:41:12;;;;;;;4.17;3.17;;;7.90;99.90;;;;;;7391670;19;20139;-82
2022/04/05 00:43:39;;;;;;;4.07;3.30;;;7.90;99.90;;;;;;7391521;19;20127;-80
2022/04/05 00:46:05;;;;;;;4.00;3.20;;;7.90;99.90;;;;;;7388969;19;20218;-81
2022/04/05 00:48:42;;;;;;;4.93;3.10;;;7.70;99.90;;;;;;7391016;19;20144;-82
2022/04/05 00:51:08;;;;;;;5.97;3.70;;;7.60;99.90;;;;;;7392962;19;20601;-81
2022/04/05 00:53:35;;;;;;;6.17;3.20;;;7.90;99.90;;;;;;7404428;19;20138;-81
2022/04/05 00:56:03;;;;;;;4.20;3.03;;;7.80;99.90;;;;;;7391357;19;20137;-81
2022/04/05 00:58:31;;;;;;;4.57;3.60;;;7.80;99.90;;;;;;7391627;19;20134;-82
2022/04/05 01:00:58;;;;;;;4.93;3.40;;;7.80;99.90;;;;;;7396660;19;20151;-82
2022/04/05 01:03:25;;;;;;;5.27;3.70;;;7.90;99.90;;;;;;7391586;19;20162;-81
2022/04/05 01:05:52;;;;;;;5.37;3.67;;;7.80;99.90;;;;;;7391766;19;20143;-81
2022/04/05 01:08:19;;;;;;;5.03;3.43;;;7.80;99.90;;;;;;7391299;19;20476;-81
2022/04/05 01:10:47;;;;;;;5.17;3.70;;;7.90;99.90;;;;;;7391195;19;20555;-82
2022/04/05 01:13:13;;;;;;;4.67;3.37;;;7.70;99.90;;;;;;7394412;19;20141;-81
2022/04/05 01:15:39;;;;;;;4.20;3.53;;;7.70;99.90;;;;;;7392978;19;20174;-80
2022/04/05 01:18:06;;;;;;;4.13;3.13;;;7.90;99.90;;;;;;7390237;19;20146;-81
2022/04/05 01:20:32;;;;;;;5.17;3.70;;;8.00;99.90;;;;;;7395849;19;20151;-81
2022/04/05 01:22:58;;;;;;;3.17;2.87;;;7.90;99.90;;;;;;7390779;19;20150;-80
2022/04/05 01:25:24;;;;;;;4.17;3.37;;;7.90;99.90;;;;;;7388932;19;20688;-81
2022/04/05 01:27:52;;;;;;;4.77;3.07;;;7.90;99.90;;;;;;7393461;19;20241;-82
2022/04/05 01:30:18;;;;;;;5.00;3.40;;;8.00;99.90;;;;;;7391316;19;20792;-81
2022/04/05 01:32:44;;;;;;;4.47;3.27;;;8.00;99.90;;;;;;7390107;19;20143;-83
2022/04/05 01:35:10;;;;;;;6.27;3.83;;;8.10;99.90;;;;;;7404324;19;20147;-82
2022/04/05 01:37:37;;;;;;;5.60;3.00;;;7.90;99.90;;;;;;7390641;19;20152;-81
2022/04/05 01:40:04;;;;;;;5.13;3.77;;;7.90;99.90;;;;;;7389911;19;20134;-81
2022/04/05 01:42:33;;;;;;;5.37;3.60;;;7.90;99.90;;;;;;7391424;19;20142;-80
2022/04/05 01:45:02;;;;;;;4.07;3.17;;;8.00;99.90;;;;;;7388790;19;20494;-81
2022/04/05 01:47:28;;;;;;;4.47;3.40;;;8.00;99.90;;;;;;7388894;19;20133;-81
2022/04/05 01:49:54;;;;;;;4.10;3.20;;;8.10;99.90;;;;;;7390189;19;20138;-81
2022/04/05 01:52:20;;;;;;;10.47;3.40;;;8.00;99.90;;;;;;7389399;19;20677;-81
2022/04/05 01:54:46;;;;;;;5.37;3.53;;;7.90;99.90;;;;;;7394220;19;20137;-82
2022/04/05 01:57:12;;;;;;;6.87;3.43;;;7.90;99.90;;;;;;7395614;19;20625;-81
2022/04/05 01:59:39;;;;;;;5.73;3.90;;;8.00;99.90;;;;;;7402820;19;20123;-81
2022/04/05 02:02:18;;;;;;;5.97;3.60;;;8.00;99.90;;;;;;7388541;19;20647;-81
2022/04/05 02:04:44;;;;;;;5.87;3.70;;;8.00;99.90;;;;;;7391170;19;20134;-82
2022/04/05 02:07:15;;;;;;;6.23;3.70;;;8.10;99.90;;;;;;7392967;19;20135;-83
2022/04/05 02:09:42;;;;;;;6.07;3.30;;;7.90;99.90;;;;;;7389316;19;20640;-82
2022/04/05 02:12:09;;;;;;;4.90;3.57;;;7.80;99.90;;;;;;7388175;19;20900;-81
2022/04/05 02:14:39;;;;;;;5.83;3.83;;;7.70;99.90;;;;;;7391747;19;20477;-81
2022/04/05 02:17:06;;;;;;;5.10;3.80;;;7.60;99.90;;;;;;7394566;19;20153;-82
2022/04/05 02:19:32;;;;;;;4.33;3.50;;;7.50;99.90;;;;;;7408586;19;20187;-82
2022/04/05 02:22:01;;;;;;;5.07;4.03;;;7.50;99.90;;;;;;7398313;19;20134;-81
2022/04/05 02:24:27;;;;;;;5.67;3.50;;;7.50;99.90;;;;;;7396559;19;20685;-82
2022/04/05 02:26:52;;;;;;;6.00;3.40;;;7.40;99.90;;;;;;7397293;19;20202;-81
2022/04/05 02:29:19;;;;;;;5.63;3.40;;;7.60;99.90;;;;;;7393501;19;20630;-82
2022/04/05 02:31:44;;;;;;;5.57;3.93;;;7.50;99.90;;;;;;7395948;19;20149;-81
2022/04/05 02:34:10;;;;;;;7.50;3.90;;;7.50;99.90;;;;;;7395708;19;20131;-82
2022/04/05 02:36:36;;;;;;;5.80;3.67;;;7.50;99.90;;;;;;7395795;19;20524;-82
2022/04/05 02:39:03;;;;;;;6.50;3.50;;;7.60;99.90;;;;;;7393769;19;20201;-83
2022/04/05 02:41:29;;;;;;;5.80;4.27;;;7.40;99.90;;;;;;7400176;19;20484;-82
2022/04/05 02:43:55;;;;;;;9.73;3.67;;;7.60;99.90;;;;;;7396883;19;21057;-82
2022/04/05 02:46:21;;;;;;;5.47;3.63;;;7.50;99.90;;;;;;7399575;19;20244;-82
2022/04/05 02:48:48;;;;;;;4.80;3.60;;;7.60;99.90;;;;;;7395020;19;20131;-81
2022/04/05 02:51:15;;;;;;;3.90;3.00;;;7.50;99.90;;;;;;7395534;19;20198;-81
2022/04/05 02:53:42;;;;;;;7.07;3.60;;;7.60;99.90;;;;;;7395091;19;20139;-81
2022/04/05 02:56:09;;;;;;;5.47;4.00;;;7.50;99.90;;;;;;7396515;19;20629;-82
2022/04/05 02:58:36;;;;;;;7.13;3.83;;;7.40;99.90;;;;;;7395015;19;20134;-82
2022/04/05 03:01:02;;;;;;;13.53;3.97;;;7.50;99.90;;;;;;7407835;19;20141;-82
2022/04/05 03:03:28;;;;;;;4.90;3.80;;;7.60;99.90;;;;;;7395965;19;20143;-83
2022/04/05 03:05:54;;;;;;;6.67;3.77;;;7.60;99.90;;;;;;7393192;19;20653;-82
2022/04/05 03:08:20;;;;;;;7.53;4.00;;;7.60;99.90;;;;;;7396658;19;20123;-82
2022/04/05 03:10:46;;;;;;;4.97;3.40;;;7.60;99.90;;;;;;7397123;19;20130;-82
2022/04/05 03:13:12;;;;;;;8.77;3.80;;;7.50;99.90;;;;;;7398477;19;20162;-81
2022/04/05 03:15:38;;;;;;;7.63;3.97;;;7.60;99.90;;;;;;7394728;19;20645;-81
2022/04/05 03:18:04;;;;;;;6.27;3.63;;;7.60;99.90;;;;;;7393376;19;20143;-82
2022/04/05 03:20:31;;;;;;;4.43;3.77;;;7.60;99.90;;;;;;7393726;19;20150;-81
2022/04/05 03:22:59;;;;;;;7.83;4.17;;;7.60;99.90;;;;;;7396777;19;20139;-82
2022/04/05 03:25:25;;;;;;;5.53;3.27;;;7.70;99.90;;;;;;7401495;19;20168;-80
2022/04/05 03:27:51;;;;;;;8.20;4.47;;;7.60;99.90;;;;;;7394466;19;20151;-81
2022/04/05 03:30:19;;;;;;;6.80;3.73;;;7.60;99.90;;;;;;7393754;19;20142;-81
2022/04/05 03:32:45;;;;;;;5.73;3.83;;;7.60;99.90;;;;;;7393509;19;20168;-82
2022/04/05 03:35:11;;;;;;;6.73;4.20;;;7.60;99.90;;;;;;7395776;19;20130;-82
2022/04/05 03:37:36;;;;;;;9.70;4.20;;;7.60;99.90;;;;;;7392551;19;20234;-81
2022/04/05 03:40:04;;;;;;;6.47;4.00;;;7.70;99.90;;;;;;7393191;19;20134;-80
2022/04/05 03:42:30;;;;;;;6.13;3.90;;;7.60;99.90;;;;;;7393293;19;20130;-83
2022/04/05 03:44:55;;;;;;;7.13;4.00;;;7.60;99.90;;;;;;7394880;19;20162;-82
2022/04/05 03:47:23;;;;;;;6.77;4.13;;;7.50;99.90;;;;;;7397281;19;20130;-81
2022/04/05 03:49:49;;;;;;;5.50;3.70;;;7.50;99.90;;;;;;7393673;19;20162;-82
2022/04/05 03:52:15;;;;;;;5.10;3.57;;;7.50;99.90;;;;;;7393140;19;20142;-81
2022/04/05 03:54:41;;;;;;;4.70;3.60;;;7.60;99.90;;;;;;7394304;19;20635;-83
2022/04/05 03:57:07;;;;;;;6.33;4.03;;;7.70;99.90;;;;;;7392876;19;20589;-81
2022/04/05 03:59:33;;;;;;;6.03;3.70;;;7.70;99.90;;;;;;7393133;19;20137;-82
2022/04/05 04:01:59;;;;;;;5.57;3.93;;;7.70;99.90;;;;;;7393461;19;20134;-82
2022/04/05 04:04:24;;;;;;;5.20;3.70;;;7.60;99.90;;;;;;7401653;19;20142;-81
2022/04/05 04:06:50;;;;;;;6.27;3.70;;;7.60;99.90;;;;;;7397310;19;20143;-80
2022/04/05 04:09:16;;;;;;;6.67;4.00;;;7.70;99.90;;;;;;7393368;19;20630;-81
2022/04/05 04:11:42;;;;;;;6.90;3.47;;;7.70;99.90;;;;;;7392206;19;20206;-81
2022/04/05 04:14:08;;;;;;;12.83;4.30;;;7.60;99.90;;;;;;7392475;19;20614;-81
2022/04/05 04:16:34;;;;;;;6.37;3.90;;;7.60;99.90;;;;;;7391878;19;20238;-83
2022/04/05 04:19:00;;;;;;;7.57;4.10;;;7.70;99.90;;;;;;7396896;19;20175;-82
2022/04/05 04:21:26;;;;;;;6.47;3.60;;;7.80;99.90;;;;;;7394856;19;20150;-81
2022/04/05 04:23:52;;;;;;;4.63;3.57;;;7.60;99.90;;;;;;7393344;19;20148;-83
2022/04/05 04:26:20;;;;;;;5.87;3.63;;;7.30;99.90;;;;;;7392416;19;20142;-80
2022/04/05 04:28:49;;;;;;;7.00;4.37;;;7.30;99.90;;;;;;7401829;19;20150;-83
2022/04/05 04:31:15;;;;;;;6.60;4.20;;;7.40;99.90;;;;;;7400206;19;20222;-83
2022/04/05 04:33:41;;;;;;;6.57;4.10;;;7.50;99.90;;;;;;7392776;19;20722;-83
2022/04/05 04:36:07;;;;;;;5.03;4.33;;;7.60;99.90;;;;;;7393977;19;20232;-83
2022/04/05 04:38:33;;;;;;;4.20;3.53;;;7.40;99.90;;;;;;7391057;19;20250;-81
2022/04/05 04:40:58;;;;;;;5.93;4.17;;;7.50;99.90;;;;;;7391751;19;20131;-80
2022/04/05 04:43:26;;;;;;;5.23;4.03;;;7.80;99.90;;;;;;7390945;19;20493;-80
2022/04/05 04:45:52;;;;;;;5.73;3.77;;;7.60;99.90;;;;;;7392768;19;20186;-80
2022/04/05 04:48:19;;;;;;;10.57;3.70;;;7.40;99.90;;;;;;7392261;19;20147;-80
2022/04/05 04:50:49;;;;;;;5.23;3.80;;;7.50;99.90;;;;;;7392959;19;20133;-80
2022/04/05 04:53:15;;;;;;;9.40;3.83;;;7.60;99.90;;;;;;7402412;19;20145;-80
2022/04/05 04:55:41;;;;;;;6.03;3.80;;;7.40;99.90;;;;;;7390905;19;20122;-80
2022/04/05 04:58:07;;;;;;;11.17;4.00;;;7.60;99.90;;;;;;7390343;19;20496;-81
2022/04/05 05:00:33;;;;;;;6.13;4.57;;;7.70;99.90;;;;;;7390634;19;20501;-79
2022/04/05 05:02:59;;;;;;;6.60;3.93;;;7.50;99.90;;;;;;7390113;19;20135;-80
2022/04/05 05:05:25;;;;;;;6.37;3.70;;;7.50;99.90;;;;;;7389984;19;20151;-80
2022/04/05 05:07:52;;;;;;;6.00;3.87;;;7.50;99.90;;;;;;7391099;19;20167;-83
2022/04/05 05:10:21;;;;;;;8.20;4.40;;;7.40;99.90;;;;;;7390570;19;20214;-82
2022/04/05 05:12:47;;;;;;;5.83;4.10;;;7.40;99.90;;;;;;7392385;19;20125;-81
2022/04/05 05:15:18;;;;;;;10.83;4.40;;;7.50;99.90;;;;;;7393151;19;20119;-81
2022/04/05 05:17:46;;;;;;;7.83;4.43;;;7.50;99.90;;;;;;7390533;19;20771;-84
2022/04/05 05:20:13;;;;;;;7.13;4.13;;;7.50;99.90;;;;;;7392035;19;20143;-82
2022/04/05 05:22:39;;;;;;;5.93;4.60;;;7.50;99.90;;;;;;7393177;19;20142;-79
2022/04/05 05:25:07;;;;;;;9.20;4.97;;;7.50;99.90;;;;;;7389044;19;20234;-80
2022/04/05 05:27:33;;;;;;;7.17;4.13;;;7.50;99.90;;;;;;7392832;19;20502;-81
2022/04/05 05:30:00;;;;;;;8.10;5.23;;;7.60;99.90;;;;;;7393696;19;20142;-83
2022/04/05 05:32:26;;;;;;;9.00;5.70;;;7.40;99.90;;;;;;7394433;19;20119;-83
2022/04/05 05:34:52;;;;;;;8.13;4.50;;;7.40;99.90;;;;;;7397552;19;20170;-80
2022/04/05 05:37:18;;;;;;;5.23;4.10;;;7.40;99.90;;;;;;7395587;19;20214;-83
2022/04/05 05:39:44;;;;;;;7.57;4.43;;;7.40;99.90;;;;;;7392582;19;20589;-81
2022/04/05 05:42:10;;;;;;;8.03;4.60;;;7.50;99.90;;;;;;7393222;19;20145;-80
2022/04/05 05:44:36;;;;;;;10.17;4.43;;;7.40;99.90;;;;;;7389719;19;20138;-79
2022/04/05 05:47:04;;;;;;;6.17;4.57;;;7.50;99.90;;;;;;7391701;19;20146;-84
2022/04/05 05:49:31;;;;;;;8.37;4.40;;;7.60;99.90;;;;;;7395481;19;20146;-88
2022/04/05 05:51:57;;;;;;;6.17;4.27;;;7.50;99.90;;;;;;7392476;19;20653;-84
2022/04/05 05:54:22;;;;;;;8.77;4.43;;;7.50;99.90;;;;;;7396960;19;20146;-85
2022/04/05 05:56:48;;;;;;;6.30;4.07;;;7.50;99.90;;;;;;7393846;19;20573;-87
2022/04/05 05:59:14;;;;;;;5.30;3.67;;;7.60;99.90;;;;;;7398506;19;20147;-85
2022/04/05 06:01:40;;;;;;;5.23;4.17;;;7.40;99.90;;;;;;7402107;19;20146;-83
2022/04/05 06:04:05;;;;;;;7.47;4.20;;;7.60;99.90;;;;;;7392905;19;20164;-85
2022/04/05 06:06:31;;;;;;;6.93;4.53;;;7.60;99.90;;;;;;7389636;19;20510;-86
2022/04/05 06:08:58;;;;;;;6.10;4.30;;;7.50;99.90;;;;;;7389610;19;20600;-80
2022/04/05 06:11:24;;;;;;;7.43;4.70;;;7.40;99.90;;;;;;7388564;19;20142;-79
2022/04/05 06:13:51;;;;;;;7.90;4.80;;;7.50;99.90;;;;;;7391052;19;20135;-86
2022/04/05 06:16:18;;;;;;;8.73;5.53;;;7.50;99.90;;;;;;7389015;19;20143;-81
2022/04/05 06:18:48;;;;;;;10.67;4.63;;;7.50;99.90;;;;;;7395469;19;20135;-85
2022/04/05 06:21:15;;;;;;;5.67;4.03;;;7.60;99.90;;;;;;7393924;19;20252;-81
2022/04/05 06:23:41;;;;;;;9.00;4.70;;;7.40;99.90;;;;;;7394666;19;20187;-86
2022/04/05 06:26:07;;;;;;;6.97;4.40;;;7.50;99.90;;;;;;7390077;19;20131;-87
2022/04/05 06:28:32;;;;;;;8.83;4.60;;;7.50;99.90;;;;;;7388126;19;20150;-81
2022/04/05 06:30:58;;;;;;;7.43;4.23;;;7.60;99.90;;;;;;7389342;19;20135;-83
2022/04/05 06:33:24;;;;;;;13.13;5.07;;;7.60;99.90;;;;;;7396251;19;20130;-84
2022/04/05 06:35:52;;;;;;;6.97;4.20;;;7.70;99.90;;;;;;7393989;19;20161;-81
2022/04/05 06:38:19;;;;;;;5.63;4.20;;;7.70;99.90;;;;;;7391991;19;20154;-84
2022/04/05 06:40:45;;;;;;;5.90;3.70;;;7.70;99.90;;;;;;7394054;19;20158;-85
2022/04/05 06:43:12;;;;;;;6.30;3.67;;;7.60;99.90;;;;;;7392222;19;20127;-84
2022/04/05 06:45:47;;;;;;;6.57;4.37;;;7.50;99.90;;;;;;7397583;19;20130;-83
2022/04/05 06:48:14;;;;;;;5.40;3.97;;;7.40;99.90;;;;;;7391711;19;20455;-83
2022/04/05 06:50:40;;;;;;;5.77;4.23;;;7.50;99.90;;;;;;7389514;19;20158;-81
2022/04/05 06:53:08;;;;;;;5.10;3.80;;;7.50;99.90;;;;;;7391189;19;20142;-81
2022/04/05 06:55:34;;;;;;;5.53;3.63;;;7.70;99.90;;;;;;7392628;19;20123;-82
2022/04/05 06:58:02;;;;;;;6.90;4.50;;;7.60;99.90;;;;;;7390609;19;20135;-83
2022/04/05 07:00:28;;;;;;;6.60;4.90;;;7.60;99.90;;;;;;7391417;19;20161;-81
2022/04/05 07:02:57;;;;;;;7.13;3.97;;;7.80;99.90;;;;;;7400113;19;20155;-81
2022/04/05 07:05:23;;;;;;;5.30;3.97;;;7.90;99.90;;;;;;7397469;19;20146;-82
2022/04/05 07:07:49;;;;;;;5.40;3.43;;;7.90;99.90;;;;;;7406274;19;20147;-80
2022/04/05 07:10:19;;;;;;;6.53;4.47;;;7.90;99.90;;;;;;7408351;19;20178;-83
2022/04/05 07:12:45;;;;;;;6.60;4.40;;;7.90;99.90;;;;;;7409399;19;20143;-85
2022/04/05 07:15:14;;;;;;;8.47;4.27;;;7.60;99.90;;;;;;7403775;19;20147;-83
2022/04/05 07:17:40;;;;;;;6.20;4.03;;;7.80;99.90;;;;;;7397903;19;20147;-83
2022/04/05 07:20:09;;;;;;;6.73;4.13;;;7.60;99.90;;;;;;7397661;19;20173;-83
2022/04/05 07:22:48;;;;;;;6.70;4.93;;;7.80;99.90;;;;;;7397037;19;20138;-81
2022/04/05 07:25:18;;;;;;;4.40;3.37;;;7.80;99.90;;;;;;7395301;19;20138;-82
2022/04/05 07:27:44;;;;;;;5.37;3.63;;;7.90;99.90;;;;;;7398947;19;20131;-81
2022/04/05 07:30:11;;;;;;;7.93;4.27;;;8.00;99.90;;;;;;7395197;19;20537;-81
2022/04/05 07:32:38;;;;;;;10.27;6.23;;;8.00;99.90;;;;;;7398974;19;20190;-82
2022/04/05 07:35:05;;;;;;;7.53;5.43;;;8.00;99.90;;;;;;7397696;19;20156;-81
2022/04/05 07:37:31;;;;;;;7.30;4.20;;;8.10;99.90;;;;;;7392454;19;20546;-83
2022/04/05 07:40:00;;;;;;;7.50;3.73;;;8.10;99.90;;;;;;7393342;19;20160;-80
2022/04/05 07:42:27;;;;;;;8.17;3.90;;;8.10;99.90;;;;;;7392539;19;20629;-82
2022/04/05 07:44:53;;;;;;;9.57;5.10;;;8.10;99.90;;;;;;7391330;19;20149;-80
2022/04/05 07:47:20;;;;;;;8.77;4.53;;;8.20;99.90;;;;;;7391957;19;20186;-80
2022/04/05 07:49:46;;;;;;;9.30;4.07;;;8.20;99.90;;;;;;7395537;19;20150;-79
2022/04/05 07:52:11;;;;;;;13.63;4.60;;;8.10;99.90;;;;;;7406685;19;20653;-81
2022/04/05 07:54:39;;;;;;;5.73;4.30;;;8.10;99.90;;;;;;7392080;19;20509;-80
2022/04/05 07:57:08;;;;;;;7.33;4.20;;;8.20;99.90;;;;;;7391969;19;20349;-81
2022/04/05 07:59:34;;;;;;;5.67;3.93;;;8.10;99.90;;;;;;7392345;19;20619;-81
2022/04/05 08:02:00;;;;;;;5.13;3.47;;;8.10;99.90;;;;;;7394171;19;20599;-78
2022/04/05 08:04:26;;;;;;;7.77;4.23;;;8.30;99.90;;;;;;7394267;19;20190;-79
2022/04/05 08:06:52;;;;;;;6.87;3.90;;;8.20;99.90;;;;;;7392248;19;20506;-80
2022/04/05 08:09:17;;;;;;;7.93;3.70;;;8.30;99.90;;;;;;7392191;19;20130;-80
2022/04/05 08:11:44;;;;;;;5.87;3.97;;;8.20;99.90;;;;;;7391948;19;20154;-80
2022/04/05 08:14:10;;;;;;;5.50;3.53;;;8.20;99.90;;;;;;7395344;19;20142;-79
2022/04/05 08:16:36;;;;;;;5.80;4.00;;;8.30;99.90;;;;;;7398364;19;20134;-79
2022/04/05 08:19:04;;;;;;;6.93;3.90;;;8.50;99.90;;;;;;7390796;19;20631;-79
2022/04/05 08:21:30;;;;;;;5.73;3.80;;;8.50;99.90;;;;;;7390838;19;20131;-81
2022/04/05 08:23:56;;;;;;;7.53;3.70;;;8.60;99.90;;;;;;7391880;19;20127;-79
2022/04/05 08:26:22;;;;;;;6.50;4.20;;;8.60;99.90;;;;;;7389611;19;20462;-79
2022/04/05 08:28:49;;;;;;;6.47;4.30;;;8.40;99.90;;;;;;7389657;19;20245;-79
2022/04/05 08:31:18;;;;;;;7.43;4.10;;;8.40;99.90;;;;;;7390917;19;20158;-81
2022/04/05 08:33:45;;;;;;;5.20;3.90;;;8.50;99.90;;;;;;7406509;19;20150;-81
2022/04/05 08:36:10;;;;;;;10.10;4.47;;;8.60;99.90;;;;;;7392730;19;20150;-80
2022/04/05 08:38:36;;;;;;;7.40;4.50;;;8.80;99.90;;;;;;7388968;19;20665;-79
2022/04/05 08:41:05;;;;;;;5.47;3.73;;;8.70;99.90;;;;;;7390480;19;20139;-82
2022/04/05 08:43:32;;;;;;;7.40;3.60;;;8.70;99.90;;;;;;7390323;19;20554;-81
2022/04/05 08:46:01;;;;;;;6.40;3.93;;;8.80;99.90;;;;;;7389633;19;20739;-80
2022/04/05 08:48:29;;;;;;;8.67;3.70;;;8.70;99.90;;;;;;7391390;19;20142;-81
2022/04/05 08:50:56;;;;;;;12.60;4.87;;;8.80;99.90;;;;;;7394300;19;20544;-83
2022/04/05 08:53:23;;;;;;;11.57;5.37;;;8.80;99.90;;;;;;7395939;19;20147;-80
2022/04/05 08:55:51;;;;;;;6.40;4.40;;;8.70;99.90;;;;;;7395453;19;20194;-81
2022/04/05 08:58:17;;;;;;;6.60;4.27;;;8.80;99.90;;;;;;7390325;19;20607;-80
2022/04/05 09:00:43;;;;;;;7.80;4.00;;;8.90;99.90;;;;;;7388692;19;20145;-80
2022/04/05 09:03:11;;;;;;;8.57;3.97;;;8.90;99.90;;;;;;7389159;19;20142;-81
2022/04/05 09:05:38;;;;;;;6.70;3.63;;;9.10;99.90;;;;;;7390495;19;20130;-78
2022/04/05 09:08:18;;;;;;;6.27;3.73;;;9.10;99.90;;;;;;7390965;19;20127;-81
2022/04/05 09:10:48;;;;;;;6.83;3.70;;;9.00;99.90;;;;;;7391024;19;20601;-80
2022/04/05 09:13:18;;;;;;;6.83;3.17;;;9.00;99.90;;;;;;7389896;19;20149;-80
2022/04/05 09:15:48;;;;;;;6.60;3.37;;;9.00;99.90;;;;;;7390617;19;20438;-80
2022/04/05 09:18:13;;;;;;;4.97;3.33;;;9.00;99.90;;;;;;7403828;19;20172;-80
2022/04/05 09:20:48;;;;;;;5.50;2.93;;;9.10;99.90;;;;;;7402082;19;20131;-80
2022/04/05 09:23:27;;;;;;;3.60;2.87;;;9.20;99.90;;;;;;7398262;19;20153;-79
2022/04/05 09:25:59;;;;;;;4.93;3.10;;;9.20;99.90;;;;;;7398777;19;20142;-78
2022/04/05 09:28:32;;;;;;;6.83;3.07;;;9.20;99.90;;;;;;7396769;19;20178;-78
2022/04/05 09:30:59;;;;;;;5.63;2.97;;;9.20;99.90;;;;;;7387784;19;20130;-78
2022/04/05 09:33:28;;;;;;;4.10;2.83;;;9.40;99.90;;;;;;7388467;19;20145;-80
2022/04/05 09:36:15;;;;;;;3.57;2.63;;;9.50;99.90;;;;;;7391560;19;20158;-81
2022/04/05 09:38:43;;;;;;;4.90;2.77;;;9.40;99.90;;;;;;7392688;19;20258;-79
2022/04/05 09:41:22;;;;;;;3.37;2.70;;;9.40;99.90;;;;;;7389696;19;20138;-79
2022/04/05 09:43:52;;;;;;;6.23;2.80;;;9.40;99.90;;;;;;7391198;19;20460;-81
2022/04/05 09:46:19;;;;;;;5.13;3.17;;;9.60;99.90;;;;;;7389153;19;20157;-80
2022/04/05 09:48:46;;;;;;;5.63;2.77;;;9.70;99.90;;;;;;7389252;19;20486;-81
2022/04/05 09:51:17;;;;;;;4.57;3.00;;;9.80;99.90;;;;;;7389978;19;20162;-79
2022/04/05 09:53:47;;;;;;;4.20;2.90;;;9.60;99.90;;;;;;7388567;19;20146;-80
2022/04/05 09:56:38;;;;;;;6.43;3.03;;;9.60;99.90;;;;;;7389846;19;20131;-80
2022/04/05 09:59:18;;;;;;;8.23;3.73;;;9.60;99.90;;;;;;7390210;19;20146;-79
2022/04/05 10:01:47;;;;;;;6.77;3.43;;;9.80;99.90;;;;;;7394948;19;20564;-81
2022/04/05 10:04:15;;;;;;;4.03;2.93;;;9.70;99.90;;;;;;7388464;19;20713;-81
2022/04/05 10:06:44;;;;;;;4.87;3.00;;;9.60;99.90;;;;;;7390979;19;20531;-81
2022/04/05 10:09:15;;;;;;;5.57;2.87;;;9.70;99.90;;;;;;7389882;19;20163;-81
2022/04/05 10:11:43;;;;;;;5.30;3.10;;;9.80;99.90;;;;;;7388779;19;20494;-79
2022/04/05 10:14:11;;;;;;;4.90;3.23;;;10.00;99.90;;;;;;7388543;19;20145;-81
2022/04/05 10:16:37;;;;;;;6.40;4.23;;;9.80;99.90;;;;;;7387905;19;20146;-80
2022/04/05 10:19:07;;;;;;;7.53;3.67;;;9.80;99.90;;;;;;7391429;19;20135;-80
2022/04/05 10:21:35;;;;;;;4.83;3.00;;;9.80;99.90;;;;;;7393782;19;20772;-81
2022/04/05 10:24:04;;;;;;;5.57;3.50;;;9.70;99.90;;;;;;7390056;19;20662;-81
2022/04/05 10:26:35;;;;;;;7.97;5.33;;;9.70;99.90;;;;;;7388541;19;20504;-82
2022/04/05 10:29:07;;;;;;;6.07;3.43;;;9.60;99.90;;;;;;7389642;19;20689;-80
2022/04/05 10:32:11;;;;;;;4.57;3.00;;;9.60;99.90;;;;;;7390395;19;20143;-81
2022/04/05 10:34:44;;;;;;;4.93;3.17;;;9.60;99.90;;;;;;7387485;19;20165;-81
2022/04/05 10:37:17;;;;;;;5.70;3.20;;;9.60;99.90;;;;;;7392234;19;20143;-80
2022/04/05 10:39:58;;;;;;;3.97;3.27;;;9.60;99.90;;;;;;7396260;19;20274;-82
2022/04/05 10:42:41;;;;;;;5.00;2.90;;;9.60;99.90;;;;;;7408683;19;20131;-81
2022/04/05 10:45:12;;;;;;;5.93;3.03;;;9.50;99.90;;;;;;7394879;19;20231;-80
2022/04/05 10:48:12;;;;;;;6.37;3.60;;;9.60;99.90;;;;;;7399589;19;20454;-80
2022/04/05 10:50:39;;;;;;;4.20;3.50;;;9.50;99.90;;;;;;7397068;19;20147;-80
2022/04/05 10:53:29;;;;;;;3.50;3.03;;;9.50;99.90;;;;;;7398078;19;20131;-80
2022/04/05 10:56:04;;;;;;;7.03;3.30;;;9.60;99.90;;;;;;7395698;19;20151;-82
2022/04/05 10:58:39;;;;;;;6.07;3.67;;;9.70;99.90;;;;;;7395211;19;20137;-83
2022/04/05 11:01:46;;;;;;;6.03;3.77;;;9.80;99.90;;;;;;7395103;19;20132;-80
2022/04/05 11:04:20;;;;;;;6.13;3.47;;;9.60;99.90;;;;;;7398454;19;20138;-80
2022/04/05 11:07:01;;;;;;;5.27;3.00;;;9.60;99.90;;;;;;7403838;19;20146;-82
2022/04/05 11:09:35;;;;;;;6.80;3.27;;;9.70;99.90;;;;;;7396412;19;20126;-80
2022/04/05 11:12:04;;;;;;;5.57;3.33;;;9.80;99.90;;;;;;7397605;19;20578;-82
2022/04/05 11:14:49;;;;;;;5.10;2.70;;;9.80;99.90;;;;;;7398355;19;20138;-82
2022/04/05 11:17:17;;;;;;;6.77;4.30;;;9.80;99.90;;;;;;7394718;19;20163;-81
2022/04/05 11:19:46;;;;;;;6.90;4.30;;;9.90;99.90;;;;;;7396405;19;20142;-82
2022/04/05 11:22:21;;;;;;;4.70;3.30;;;9.90;99.90;;;;;;7397830;19;20198;-82
2022/04/05 11:25:28;;;;;;;4.30;2.50;;;10.10;99.90;;;;;;7412079;19;20142;-82
2022/04/05 11:27:55;;;;;;;4.10;2.57;;;10.10;99.90;;;;;;7393974;19;20186;-80
2022/04/05 11:30:27;;;;;;;4.13;2.70;;;10.20;99.90;;;;;;7398435;19;20429;-80
2022/04/05 11:33:34;;;;;;;3.03;2.50;;;10.20;99.90;;;;;;7394202;19;20131;-82
2022/04/05 11:36:07;;;;;;;3.57;2.60;;;10.30;99.90;;;;;;7393827;19;20146;-81
2022/04/05 11:38:41;;;;;;;3.60;2.57;;;10.30;99.90;;;;;;7393173;19;20174;-82
2022/04/05 11:41:26;;;;;;;3.17;2.10;;;10.20;99.90;;;;;;7393891;19;20479;-81
2022/04/05 11:44:00;;;;;;;3.37;2.30;;;10.10;99.90;;;;;;7397033;19;20127;-79
2022/04/05 11:46:28;;;;;;;2.17;1.80;;;10.20;99.90;;;;;;7402681;19;20158;-80
2022/04/05 11:48:56;;;;;;;3.50;2.40;;;10.30;99.90;;;;;;7392938;19;20130;-80
2022/04/05 11:51:24;;;;;;;3.33;2.43;;;10.40;99.90;;;;;;7392696;19;20122;-81
2022/04/05 11:53:51;;;;;;;4.00;2.23;;;10.50;99.90;;;;;;7395016;19;20172;-82
2022/04/05 11:56:25;;;;;;;4.23;2.23;;;10.40;99.90;;;;;;7393802;19;20149;-82
2022/04/05 11:58:56;;;;;;;3.73;2.10;;;10.50;99.90;;;;;;7392342;19;20131;-80
2022/04/05 12:01:28;;;;;;;2.33;2.10;;;10.50;99.90;;;;;;7392342;19;20139;-80
2022/04/05 12:04:05;;;;;;;2.90;2.10;;;10.60;99.90;;;;;;7392670;19;20198;-80
2022/04/05 12:06:34;;;;;;;2.33;2.00;;;10.60;99.90;;;;;;7392808;19;20122;-79
2022/04/05 12:09:15;;;;;;;2.37;1.87;;;10.50;99.90;;;;;;7396375;19;20198;-80
2022/04/05 12:11:43;;;;;;;4.47;2.93;;;10.70;99.90;;;;;;7392139;19;20130;-83
2022/04/05 12:14:24;;;;;;;4.77;2.17;;;10.60;99.90;;;;;;7393303;19;20138;-81
2022/04/05 12:16:54;;;;;;;2.40;2.00;;;10.70;99.90;;;;;;7394278;19;20547;-81
2022/04/05 12:19:24;;;;;;;3.73;2.40;;;10.70;99.90;;;;;;7395002;19;20149;-81
2022/04/05 12:22:02;;;;;;;2.57;2.10;;;10.60;99.90;;;;;;7390466;19;20131;-80
2022/04/05 12:24:30;;;;;;;3.73;2.20;;;10.70;99.90;;;;;;7397137;19;20158;-80
2022/04/05 12:27:00;;;;;;;2.10;1.73;;;10.70;99.90;;;;;;7398754;19;20126;-80
2022/04/05 12:29:28;;;;;;;3.33;2.33;;;10.70;99.90;;;;;;7388820;19;20153;-81
2022/04/05 12:31:56;;;;;;;3.20;2.20;;;10.90;99.90;;;;;;7390992;19;20146;-80
2022/04/05 12:34:22;;;;;;;2.40;2.00;;;11.00;99.90;;;;;;7391365;19;20122;-81
2022/04/05 12:36:55;;;;;;;2.90;2.17;;;11.10;99.90;;;;;;7395129;19;20141;-81
2022/04/05 12:39:29;;;;;;;2.53;1.80;;;10.90;99.90;;;;;;7389191;19;20147;-80
2022/04/05 12:41:59;;;;;;;2.87;1.87;;;10.90;99.90;;;;;;7390513;19;20164;-81
2022/04/05 12:44:30;;;;;;;4.20;2.00;;;10.80;99.90;;;;;;7390629;19;20518;-80
2022/04/05 12:46:58;;;;;;;2.90;1.90;;;10.80;99.90;;;;;;7393080;19;20194;-81
2022/04/05 12:49:34;;;;;;;2.30;2.00;;;10.90;99.90;;;;;;7397849;19;20221;-80
2022/04/05 12:52:06;;;;;;;4.53;2.20;;;10.80;99.90;;;;;;7391814;19;20664;-80
2022/04/05 12:54:35;;;;;;;2.17;1.80;;;10.90;99.90;;;;;;7389973;19;20146;-81
2022/04/05 12:57:17;;;;;;;1.97;1.73;;;10.80;99.90;;;;;;7390419;19;20143;-81
2022/04/05 12:59:44;;;;;;;3.70;1.67;;;10.90;99.90;;;;;;7390517;19;20162;-79
2022/04/05 13:02:26;;;;;;;3.40;1.50;;;10.80;99.90;;;;;;7391038;19;20566;-79
2022/04/05 13:06:19;;;;;;;1.60;1.40;;;11.00;99.90;;;;;;7391254;19;20502;-78